Time;durP1;ratioP1;P1;durP2;ratioP2;P2;SDS_P1;SDS_P2;PMS_P1;PMS_P2;Temp;Humidity;BMP_temperature;BMP_pressure;BME280_temperature;BME280_humidity;BME280_pressure;Samples;Min_cycle;Max_cycle;Signal;HPM_P1;HPM_P2
2023/12/15 12:30:53;;;;;;;1.40;1.30;;;;;;;;;;6185888;22;20134;31
2023/12/15 12:33:24;;;;;;;1.60;1.50;;;;;;;;;;6127732;23;20014;-84
2023/12/15 12:35:49;;;;;;;1.63;1.25;;;;;;;;;;6127664;23;20014;-84
2023/12/15 12:38:15;;;;;;;1.35;1.10;;;;;;;;;;6101671;23;20034;-84
2023/12/15 12:40:41;;;;;;;1.30;1.20;;;;;;;;;;6127596;23;20002;-84
2023/12/15 12:43:07;;;;;;;1.05;1.00;;;;;;;;;;6126027;23;20013;-84
2023/12/15 12:45:32;;;;;;;1.00;1.00;;;;;;;;;;6127964;23;20008;-84
2023/12/15 16:40:17;;;;;;;;;;;;;;;;;;6154876;23;19922;-84
2023/12/15 16:42:45;;;;;;;;;;;;;;;;;;6161696;23;19912;-86
2023/12/15 16:45:13;;;;;;;;;;;;;;;;;;6185789;23;19978;-88
2023/12/15 16:47:42;;;;;;;;;;;;;;;;;;6207522;23;20242;-86
2023/12/15 16:50:10;;;;;;;;;;;;;;;;;;6218157;23;19908;-82
2023/12/15 16:52:37;;;;;;;;;;;;;;;;;;6217097;23;19914;-84
2023/12/15 16:55:04;;;;;;;;;;;;;;;;;;6218637;23;20323;-87
2023/12/15 16:57:31;;;;;;;;;;;;;;;;;;6191983;23;19999;-87
2023/12/15 16:59:56;;;;;;;;;;;;;;;;;;6219071;23;19986;-85
2023/12/15 17:02:22;;;;;;;;;;;;;;;;;;6217653;23;19915;-82
2023/12/15 17:04:59;;;;;;;;;;;;;;;;;;6217816;23;19908;-84
2023/12/15 17:07:25;;;;;;;;;;;;;;;;;;6190988;23;20242;-84
2023/12/15 17:09:51;;;;;;;;;;;;;;;;;;6217432;23;19946;-85
2023/12/15 17:12:17;;;;;;;;;;;;;;;;;;6218548;23;19918;-85
2023/12/15 17:14:45;;;;;;;;;;;;;;;;;;6218801;23;19908;-84
2023/12/15 17:17:11;;;;;;;;;;;;;;;;;;6217321;23;20334;-86
2023/12/15 17:19:45;;;;;;;0.85;0.85;;;;;;;;;;6215940;23;20254;-85
2023/12/15 17:22:13;;;;;;;0.73;0.73;;;;;;;;;;6218204;23;20541;-93
2023/12/15 17:24:40;;;;;;;1.75;1.25;;;;;;;;;;6193605;23;20011;-85
2023/12/15 17:27:07;;;;;;;1.00;1.00;;;;;;;;;;6218722;23;20009;-84
2023/12/15 17:29:36;;;;;;;1.70;1.60;;;;;;;;;;6219369;23;20005;-83
2023/12/15 17:32:07;;;;;;;0.93;0.93;;;;;;;;;;6189995;23;20088;-82
2023/12/15 17:34:34;;;;;;;1.10;1.10;;;;;;;;;;6190485;23;20027;-84
2023/12/15 17:37:02;;;;;;;1.58;1.20;;;;;;;;;;6217839;23;20028;-82
2023/12/15 17:39:27;;;;;;;1.15;1.15;;;;;;;;;;6217463;23;20005;-81
2023/12/15 17:41:54;;;;;;;0.90;0.90;;;;;;;;;;6216411;23;20340;-81
2023/12/15 17:44:22;;;;;;;1.00;1.00;;;;;;;;;;6216863;23;20013;-82
2023/12/15 17:46:48;;;;;;;;;;;;;;;;;;6216062;23;20092;-83
2023/12/15 17:49:13;;;;;;;;;;;;;;;;;;6218734;23;20282;-85
2023/12/15 17:51:39;;;;;;;;;;;;;;;;;;6217260;23;19908;-84
2023/12/15 17:54:05;;;;;;;;;;;;;;;;;;6218804;23;19912;-84
2023/12/15 17:56:31;;;;;;;;;;;;;;;;;;6217350;23;19963;-87
2023/12/15 17:58:56;;;;;;;;;;;;;;;;;;6191477;23;19915;-85
2023/12/15 18:01:23;;;;;;;;;;;;;;;;;;6218131;23;20289;-84
2023/12/15 18:03:50;;;;;;;;;;;;;;;;;;6218048;23;19915;-84
2023/12/15 18:06:17;;;;;;;;;;;;;;;;;;6217546;23;20308;-84
2023/12/15 18:08:48;;;;;;;;;;;;;;;;;;6218522;23;19915;-83
2023/12/15 18:11:22;;;;;;;;;;;;;;;;;;6217492;23;19934;-83
2023/12/15 18:16:34;;;;;;;;;;;;;;;;;;6197769;23;19908;-84
2023/12/15 18:19:02;;;;;;;;;;;;;;;;;;6218294;23;19907;-84
2023/12/15 18:21:29;;;;;;;;;;;;;;;;;;6218423;23;19907;-85
2023/12/15 18:24:01;;;;;;;;;;;;;;;;;;6216376;23;19915;-85
2023/12/15 18:26:31;;;;;;;;;;;;;;;;;;6190241;23;20285;-85
2023/12/15 18:28:57;;;;;;;;;;;;;;;;;;6217244;23;19915;-84
2023/12/15 18:31:24;;;;;;;;;;;;;;;;;;6217797;23;19908;-85
2023/12/15 18:33:51;;;;;;;;;;;;;;;;;;6217854;23;19907;-84
2023/12/15 18:36:16;;;;;;;;;;;;;;;;;;6218704;23;20223;-87
2023/12/15 18:38:43;;;;;;;;;;;;;;;;;;6217987;23;19931;-84
2023/12/15 18:41:16;;;;;;;;;;;;;;;;;;6191292;23;19962;-84
2023/12/15 18:43:47;;;;;;;;;;;;;;;;;;6217430;23;19912;-85
2023/12/15 18:46:17;;;;;;;;;;;;;;;;;;6216799;23;19935;-83
2023/12/15 18:48:43;;;;;;;;;;;;;;;;;;6217548;23;19908;-83
2023/12/15 18:51:15;;;;;;;;;;;;;;;;;;6217046;23;20281;-84
2023/12/15 18:53:42;;;;;;;;;;;;;;;;;;6217434;23;19908;-84
2023/12/15 18:56:16;;;;;;;;;;;;;;;;;;6216698;23;20246;-84
2023/12/15 18:58:48;;;;;;;;;;;;;;;;;;6217152;23;19908;-84
2023/12/15 19:01:19;;;;;;;;;;;;;;;;;;6216835;23;19930;-83
2023/12/15 19:03:45;;;;;;;;;;;;;;;;;;6218857;23;19907;-84
2023/12/15 19:06:13;;;;;;;;;;;;;;;;;;6218833;23;21826;-84
2023/12/15 19:08:40;;;;;;;;;;;;;;;;;;6218934;23;19907;-84
2023/12/15 19:11:07;;;;;;;;;;;;;;;;;;6218595;23;19908;-84
2023/12/15 19:13:33;;;;;;;;;;;;;;;;;;6218743;23;20242;-84
2023/12/15 19:15:59;;;;;;;;;;;;;;;;;;6221166;23;20321;-84
2023/12/15 19:18:25;;;;;;;;;;;;;;;;;;6219145;23;19908;-84
2023/12/15 19:20:51;;;;;;;;;;;;;;;;;;6218332;23;20231;-84
2023/12/15 19:23:18;;;;;;;;;;;;;;;;;;6218130;23;19907;-83
2023/12/15 19:25:47;;;;;;;;;;;;;;;;;;6218761;23;20282;-85
2023/12/15 19:28:14;;;;;;;;;;;;;;;;;;6218545;23;19908;-84
2023/12/15 19:30:39;;;;;;;;;;;;;;;;;;6218841;23;19914;-84
2023/12/15 19:33:05;;;;;;;;;;;;;;;;;;6216917;23;20311;-84
2023/12/15 19:35:32;;;;;;;;;;;;;;;;;;6218489;23;19911;-85
2023/12/15 19:37:58;;;;;;;;;;;;;;;;;;6218736;23;19908;-85
2023/12/15 19:40:24;;;;;;;;;;;;;;;;;;6218326;23;19942;-85
2023/12/15 19:42:51;;;;;;;;;;;;;;;;;;6218905;23;19908;-86
2023/12/15 19:45:18;;;;;;;;;;;;;;;;;;6218600;23;20381;-86
2023/12/15 19:47:45;;;;;;;;;;;;;;;;;;6219103;23;19930;-86
2023/12/15 19:50:11;;;;;;;;;;;;;;;;;;6192466;23;19907;-87
2023/12/15 19:52:38;;;;;;;;;;;;;;;;;;6192672;23;19931;-88
2023/12/15 19:55:05;;;;;;;;;;;;;;;;;;6193112;23;19954;-89
2023/12/15 19:57:30;;;;;;;;;;;;;;;;;;6192313;23;19973;-88
2023/12/15 19:59:56;;;;;;;;;;;;;;;;;;6192254;23;20308;-88
2023/12/15 20:02:23;;;;;;;;;;;;;;;;;;6192228;23;19908;-88
2023/12/15 20:04:52;;;;;;;;;;;;;;;;;;6218600;23;19907;-88
2023/12/15 20:07:19;;;;;;;;;;;;;;;;;;6216475;23;19908;-87
2023/12/15 20:09:45;;;;;;;;;;;;;;;;;;6218876;23;19943;-88
2023/12/15 20:12:11;;;;;;;;;;;;;;;;;;6191730;23;19908;-88
2023/12/15 20:14:36;;;;;;;;;;;;;;;;;;6217974;23;19908;-88
2023/12/15 20:17:06;;;;;;;;;;;;;;;;;;6191432;23;19908;-87
2023/12/15 20:19:32;;;;;;;;;;;;;;;;;;6216411;23;19990;-87
2023/12/15 20:21:58;;;;;;;;;;;;;;;;;;6216495;23;19908;-88
2023/12/15 20:24:23;;;;;;;;;;;;;;;;;;6191540;23;19935;-88
2023/12/15 20:26:50;;;;;;;;;;;;;;;;;;6217847;23;19943;-88
2023/12/15 20:29:17;;;;;;;;;;;;;;;;;;6218292;23;19912;-87
